sensor_id;sensor_type;location;lat;lon;timestamp;pressure;altitude;pressure_sealevel;temperature;humidity
15558;BME280;7880;50.110;9.372;2022-08-01T00:03:47;18.8529306384793;;;18.437;85.55375836096606
15558;BME280;7880;50.110;9.372;2022-08-01T00:08:38;18.822673946717988;;;18.375;85.94590701959321
15558;BME280;7880;50.110;9.372;2022-08-01T00:13:42;18.984043090516934;;;18.437;85.12420756219014
15558;BME280;7880;50.110;9.372;2022-08-01T00:18:46;18.701647284446516;;;18.25;86.26921932391255
15558;BME280;7880;50.110;9.372;2022-08-01T00:23:51;18.787374486238697;;;18.25;85.8886285612282
15558;BME280;7880;50.110;9.372;2022-08-01T00:28:53;18.656262329313904;;;18.125;85.9704820625467
15558;BME280;7880;50.110;9.372;2022-08-01T00:33:56;18.7772889287211;;;18.125;85.97835534938696
15558;BME280;7880;50.110;9.372;2022-08-01T00:39:07;18.716775608062743;;;18.187;85.64053503068936
15558;BME280;7880;50.110;9.372;2022-08-01T00:44:05;18.656262329313904;;;18.187;86.17878077972283
15558;BME280;7880;50.110;9.372;2022-08-01T00:49:08;18.65121955797658;;;18.187;86.7336207959724
15558;BME280;7880;50.110;9.372;2022-08-01T00:54:11;18.74198948657722;;;18.25;86.19886624260579
15558;BME280;7880;50.110;9.372;2022-08-01T00:59:22;18.74198948657722;;;18.25;86.5941383211388
15558;BME280;7880;50.110;9.372;2022-08-01T01:04:21;18.696604510489852;;;18.25;86.59446070591311
15558;BME280;7880;50.110;9.372;2022-08-01T01:09:33;18.686518963449636;;;18.25;86.61470734294413
15558;BME280;7880;50.110;9.372;2022-08-01T01:14:36;18.570535256160657;;;18.187;88.12316871560922
15558;BME280;7880;50.110;9.372;2022-08-01T01:19:47;18.731903934298316;;;18.25;87.38874827766706
15558;BME280;7880;50.110;9.372;2022-08-01T01:24:47;18.74198948657722;;;18.375;88.13738558644839
15558;BME280;7880;50.110;9.372;2022-08-01T01:30:15;18.832759509474272;;;18.437;88.46276605759955
15558;BME280;7880;50.110;9.372;2022-08-01T01:34:56;18.92857241372112;;;18.562;87.27727937698667
15558;BME280;7880;50.110;9.372;2022-08-01T01:40:06;18.948743564845064;;;18.562;88.03275910013693
15558;BME280;7880;50.110;9.372;2022-08-01T01:45:04;18.863016204728048;;;18.562;88.30604233721044
15558;BME280;7880;50.110;9.372;2022-08-01T01:50:09;18.903358481364556;;;18.562;88.5776624607816
15558;BME280;7880;50.110;9.372;2022-08-01T01:55:14;18.958829142153263;;;18.625;88.62675978650991
15558;BME280;7880;50.110;9.372;2022-08-01T02:00:23;18.979000300262122;;;18.625;88.74657414814537
15558;BME280;7880;50.110;9.372;2022-08-01T02:05:36;18.953786353353642;;;18.687;89.14950719887912
15558;BME280;7880;50.110;9.372;2022-08-01T02:10:28;19.054642184643306;;;18.75;88.80870332620349
15558;BME280;7880;50.110;9.372;2022-08-01T02:15:30;19.115155739296462;;;18.812;88.5539052079633
15558;BME280;7880;50.110;9.372;2022-08-01T02:20:34;19.12524133581319;;;18.875;88.83821232453032
15558;BME280;7880;50.110;9.372;2022-08-01T02:25:42;19.170626534544862;;;18.875;88.27706425665026
15558;BME280;7880;50.110;9.372;2022-08-01T02:30:47;19.170626534544862;;;18.937;88.84878911682704
15558;BME280;7880;50.110;9.372;2022-08-01T02:35:51;19.185754939360777;;;18.937;89.06424463818699
15558;BME280;7880;50.110;9.372;2022-08-01T02:40:52;19.21601175685064;;;18.937;88.86470948899414
15558;BME280;7880;50.110;9.372;2022-08-01T02:45:59;19.200883346796036;;;18.937;89.0179110866628
15558;BME280;7880;50.110;9.372;2022-08-01T02:51:07;19.2260973650089;;;19.0;88.90861966659975
15558;BME280;7880;50.110;9.372;2022-08-01T02:56:05;19.155498132348292;;;18.937;89.81391079866191
15558;BME280;7880;50.110;9.372;2022-08-01T03:01:10;19.17566933585913;;;18.875;89.51715631594762
15558;BME280;7880;50.110;9.372;2022-08-01T03:06:18;19.105070143943884;;;18.875;90.22451233446762
15558;BME280;7880;50.110;9.372;2022-08-01T03:11:22;19.079856160655616;;;18.812;90.42975795570119
15558;BME280;7880;50.110;9.372;2022-08-01T03:16:27;19.039513802528383;;;18.75;90.78262966162157
15558;BME280;7880;50.110;9.372;2022-08-01T03:21:29;19.03447100907215;;;18.75;90.9848636840885
15558;BME280;7880;50.110;9.372;2022-08-01T03:26:34;18.979000300262122;;;18.687;91.54920757299388
15558;BME280;7880;50.110;9.372;2022-08-01T03:31:37;18.963871931243922;;;18.687;91.40863311881786
15558;BME280;7880;50.110;9.372;2022-08-01T03:36:47;18.963871931243922;;;18.687;91.39262467187757
15558;BME280;7880;50.110;9.372;2022-08-01T03:41:49;18.989085881062785;;;18.687;91.06480177579938
15558;BME280;7880;50.110;9.372;2022-08-01T03:46:48;18.953786353353642;;;18.687;91.50879373071015
15558;BME280;7880;50.110;9.372;2022-08-01T03:51:51;18.94370077662752;;;18.687;91.7530038739041
15558;BME280;7880;50.110;9.372;2022-08-01T03:56:54;18.89831569576636;;;18.625;92.24890139688979
15558;BME280;7880;50.110;9.372;2022-08-01T04:01:58;18.93361520106555;;;18.625;91.88515159175871
15558;BME280;7880;50.110;9.372;2022-08-01T04:07:21;18.908401267253794;;;18.625;92.19146712225339
15558;BME280;7880;50.110;9.372;2022-08-01T04:12:07;18.93361520106555;;;18.625;92.01318916977326
15558;BME280;7880;50.110;9.372;2022-08-01T04:17:13;18.984043090516934;;;18.687;92.21143701076312
15558;BME280;7880;50.110;9.372;2022-08-01T04:22:27;19.04455659627565;;;18.812;91.43442009648973
15558;BME280;7880;50.110;9.372;2022-08-01T04:27:34;19.08994175309781;;;18.812;91.22640812891049
15558;BME280;7880;50.110;9.372;2022-08-01T04:32:28;19.04455659627565;;;18.812;91.89337641196852
15558;BME280;7880;50.110;9.372;2022-08-01T04:37:30;19.084898956731195;;;18.812;91.56740722921306
15558;BME280;7880;50.110;9.372;2022-08-01T04:42:38;19.059684979263693;;;18.812;91.92724403088258
15558;BME280;7880;50.110;9.372;2022-08-01T04:47:29;19.14036973277107;;;18.875;91.24317069910585
15558;BME280;7880;50.110;9.372;2022-08-01T04:52:33;19.069770569377578;;;18.875;91.85376420713035
15558;BME280;7880;50.110;9.372;2022-08-01T04:57:39;19.094984549755463;;;18.875;91.9689178062233
15558;BME280;7880;50.110;9.372;2022-08-01T05:02:41;19.100027346704156;;;18.875;92.73262064596949
15558;BME280;7880;50.110;9.372;2022-08-01T05:07:46;19.079856160655616;;;18.812;93.06089744239739
15558;BME280;7880;50.110;9.372;2022-08-01T05:12:48;19.160540932789445;;;18.875;93.11365084339239
15558;BME280;7880;50.110;9.372;2022-08-01T05:17:54;19.115155739296462;;;18.875;93.21468699089513
15558;BME280;7880;50.110;9.372;2022-08-01T05:22:58;19.110112941474654;;;18.875;93.36876737563108
15558;BME280;7880;50.110;9.372;2022-08-01T05:28:08;19.210968953208067;;;18.937;93.02922675039396
15558;BME280;7880;50.110;9.372;2022-08-01T05:33:07;19.3067822721845;;;19.0;92.16567493920044
15558;BME280;7880;50.110;9.372;2022-08-01T05:38:10;19.362253189086914;;;19.062;91.99626160789119
15558;BME280;7880;50.110;9.372;2022-08-01T05:43:14;19.437895405251766;;;19.187;91.37521844136673
15558;BME280;7880;50.110;9.372;2022-08-01T05:48:17;19.427809772646288;;;19.187;91.66778653648147
15558;BME280;7880;50.110;9.372;2022-08-01T05:53:26;19.49840922533185;;;19.25;91.4733510520952
15558;BME280;7880;50.110;9.372;2022-08-01T05:58:25;19.442938221991064;;;19.25;91.3811695477593
15558;BME280;7880;50.110;9.372;2022-08-01T06:03:31;19.45302385634277;;;19.25;90.98170623520396
15558;BME280;7880;50.110;9.372;2022-08-01T06:08:34;19.553880263888278;;;19.312;90.886916731916
15558;BME280;7880;50.110;9.372;2022-08-01T06:13:36;19.54379461789504;;;19.312;89.9183052494113
15558;BME280;7880;50.110;9.372;2022-08-01T06:18:40;19.604308511316777;;;19.375;89.92541337582874
15558;BME280;7880;50.110;9.372;2022-08-01T06:23:45;19.619436991220574;;;19.375;89.93788309273394
15558;BME280;7880;50.110;9.372;2022-08-01T06:28:51;19.750550593441584;;;19.5;89.47192614290357
15558;BME280;7880;50.110;9.372;2022-08-01T06:33:57;19.785850443039088;;;19.562;89.16041489799314
15558;BME280;7880;50.110;9.372;2022-08-01T06:38:58;20.123721153527732;;;19.812;88.4819818022039
15558;BME280;7880;50.110;9.372;2022-08-01T06:44:04;20.00269268914708;;;19.812;87.91674194422812
15558;BME280;7880;50.110;9.372;2022-08-01T06:49:04;20.022864088235657;;;19.812;88.07964924960514
15558;BME280;7880;50.110;9.372;2022-08-01T06:54:07;20.108592586312444;;;19.875;88.00900986557839
15558;BME280;7880;50.110;9.372;2022-08-01T06:59:11;20.214492611825698;;;19.937;89.04929464994578
15558;BME280;7880;50.110;9.372;2022-08-01T07:04:23;20.628008226217936;;;20.312;86.57669692153802
15558;BME280;7880;50.110;9.372;2022-08-01T07:09:22;20.733908881247043;;;20.562;85.65993854062754
15558;BME280;7880;50.110;9.372;2022-08-01T07:14:24;20.214492611825698;;;20.062;87.03517222135793
15558;BME280;7880;50.110;9.372;2022-08-01T07:19:30;20.380907196947373;;;20.062;86.4853331149885
15558;BME280;7880;50.110;9.372;2022-08-01T07:24:31;20.49185042977333;;;20.187;85.90215796260888
15558;BME280;7880;50.110;9.372;2022-08-01T07:29:35;20.411164428293706;;;20.187;85.75938221631009
15558;BME280;7880;50.110;9.372;2022-08-01T07:34:41;20.567493623826884;;;20.25;85.33091170991067
15558;BME280;7880;50.110;9.372;2022-08-01T07:39:45;20.77929491554969;;;20.5;84.0595672494711
15558;BME280;7880;50.110;9.372;2022-08-01T07:44:55;20.920496061915763;;;20.625;83.20387260497262
15558;BME280;7880;50.110;9.372;2022-08-01T07:49:59;20.950753480108688;;;20.75;82.45995602597576
15558;BME280;7880;50.110;9.372;2022-08-01T07:55:03;20.819638076942645;;;20.562;83.75224644425198
15558;BME280;7880;50.110;9.372;2022-08-01T08:00:03;21.3743584349344;;;20.937;81.2431779515174
15558;BME280;7880;50.110;9.372;2022-08-01T08:05:07;21.444959460390965;;;21.25;80.6525037778162
15558;BME280;7880;50.110;9.372;2022-08-01T08:10:10;21.550861105532384;;;21.312;80.77571054133254
15558;BME280;7880;50.110;9.372;2022-08-01T08:15:29;21.313843315659323;;;21.187;79.83794629517932
15558;BME280;7880;50.110;9.372;2022-08-01T08:20:19;21.692063498706556;;;21.375;79.81417178387679
15558;BME280;7880;50.110;9.372;2022-08-01T08:25:24;21.818137256853515;;;21.562;78.42981925273203
15558;BME280;7880;50.110;9.372;2022-08-01T08:30:27;21.6567628790217;;;21.437;79.64923740561488
15558;BME280;7880;50.110;9.372;2022-08-01T08:35:30;21.641634046379476;;;21.437;78.33838862127922
15558;BME280;7880;50.110;9.372;2022-08-01T08:40:35;21.74753592988127;;;21.375;77.39362151428377
15558;BME280;7880;50.110;9.372;2022-08-01T08:45:37;22.014812682778576;;;21.687;77.32545671319248
15558;BME280;7880;50.110;9.372;2022-08-01T08:50:50;22.16105879927636;;;21.875;76.7769093338644
15558;BME280;7880;50.110;9.372;2022-08-01T08:55:44;22.070285318844252;;;21.75;76.7582518148067
15558;BME280;7880;50.110;9.372;2022-08-01T09:00:50;22.009769717609743;;;21.812;74.3992103300942
15558;BME280;7880;50.110;9.372;2022-08-01T09:05:53;22.17618772184942;;;21.937;73.64550352104986
15558;BME280;7880;50.110;9.372;2022-08-01T09:10:56;22.12071501855389;;;21.875;75.61803533101028
15558;BME280;7880;50.110;9.372;2022-08-01T09:15:59;22.0299415800313;;;21.812;75.02728219793171
15558;BME280;7880;50.110;9.372;2022-08-01T09:21:14;21.974468969576993;;;21.75;71.57089405282328
15558;BME280;7880;50.110;9.372;2022-08-01T09:26:15;22.16105879927636;;;21.937;72.9417596310518
15558;BME280;7880;50.110;9.372;2022-08-01T09:31:12;22.09045719523565;;;21.875;73.44957542928292
15558;BME280;7880;50.110;9.372;2022-08-01T09:36:17;22.312348142877454;;;22.0;73.48876918789169
15558;BME280;7880;50.110;9.372;2022-08-01T09:41:32;22.5241536639689;;;22.312;68.67792307088234
15558;BME280;7880;50.110;9.372;2022-08-01T09:46:25;23.07888484276482;;;22.687;68.80254581893864
15558;BME280;7880;50.110;9.372;2022-08-01T09:51:39;22.781346772634425;;;22.687;65.78416158611944
15558;BME280;7880;50.110;9.372;2022-08-01T09:56:43;22.584669621434294;;;22.375;65.03460945403287
15558;BME280;7880;50.110;9.372;2022-08-01T10:01:54;22.509024681150912;;;22.312;66.39604888047386
15558;BME280;7880;50.110;9.372;2022-08-01T10:07:04;22.433379806351148;;;22.25;67.65897384458411
15558;BME280;7880;50.110;9.372;2022-08-01T10:11:58;22.312348142877454;;;22.187;66.29150440391793
15558;BME280;7880;50.110;9.372;2022-08-01T10:17:13;22.115672047273257;;;21.875;67.87609492843559
15558;BME280;7880;50.110;9.372;2022-08-01T10:22:07;22.019855648238444;;;21.812;63.89554559005347
15558;BME280;7880;50.110;9.372;2022-08-01T10:27:09;22.574583625613013;;;22.25;62.77205778944032
15558;BME280;7880;50.110;9.372;2022-08-01T10:32:18;23.139401184400775;;;22.812;60.03118046101131
15558;BME280;7880;50.110;9.372;2022-08-01T10:37:19;23.346165667870082;;;23.062;59.82364587138398
15558;BME280;7880;50.110;9.372;2022-08-01T10:42:23;22.846905921405416;;;22.875;61.63582242848367
15558;BME280;7880;50.110;9.372;2022-08-01T10:47:38;23.10914300834411;;;22.937;60.817991854102274
15558;BME280;7880;50.110;9.372;2022-08-01T10:52:31;23.05366971278563;;;22.812;58.90147302653525
15558;BME280;7880;50.110;9.372;2022-08-01T10:57:46;23.45206961716176;;;23.187;59.023292510087785
15558;BME280;7880;50.110;9.372;2022-08-01T11:02:58;23.936203591251978;;;23.625;59.16010797054898
15558;BME280;7880;50.110;9.372;2022-08-01T11:07:48;23.643705661181592;;;23.562;58.482153630483666
15558;BME280;7880;50.110;9.372;2022-08-01T11:12:50;24.132883784384468;;;23.875;57.538989936234294
15558;BME280;7880;50.110;9.372;2022-08-01T11:17:54;23.820212915632872;;;23.75;58.435615473031795
15558;BME280;7880;50.110;9.372;2022-08-01T11:23:16;23.588232026272454;;;23.375;60.05302178278313
15558;BME280;7880;50.110;9.372;2022-08-01T11:28:17;23.825255985284457;;;23.625;59.76499331654561
15558;BME280;7880;50.110;9.372;2022-08-01T11:33:06;23.689093206846156;;;23.437;59.02882108403155
15558;BME280;7880;50.110;9.372;2022-08-01T11:38:24;24.490943734027677;;;24.125;56.364209091790364
15558;BME280;7880;50.110;9.372;2022-08-01T11:43:19;24.51615927873645;;;24.375;55.66623728907408
15558;BME280;7880;50.110;9.372;2022-08-01T11:48:18;24.279133445728803;;;24.125;55.449708889344556
15558;BME280;7880;50.110;9.372;2022-08-01T11:53:20;24.09758217866183;;;23.875;57.60291974620081
15558;BME280;7880;50.110;9.372;2022-08-01T11:58:24;24.62206464596675;;;24.312;53.85622068974632
15558;BME280;7880;50.110;9.372;2022-08-01T12:03:29;24.082452923431994;;;24.0;54.09969419644125
15558;BME280;7880;50.110;9.372;2022-08-01T12:08:36;24.087496008217567;;;23.875;55.01133663458271
15558;BME280;7880;50.110;9.372;2022-08-01T12:13:40;24.22870250037522;;;24.0;53.95192473473359
15558;BME280;7880;50.110;9.372;2022-08-01T12:18:40;24.142969960067422;;;23.937;55.01885146160972
15558;BME280;7880;50.110;9.372;2022-08-01T12:23:45;24.67249581833021;;;24.375;53.070729460519914
15558;BME280;7880;50.110;9.372;2022-08-01T12:28:47;25.091075672209264;;;24.875;54.474036090143564
15558;BME280;7880;50.110;9.372;2022-08-01T12:33:50;25.439053221518407;;;25.312;52.38894713863502
15558;BME280;7880;50.110;9.372;2022-08-01T12:38:53;25.95345735429437;;;25.812;52.00428142624867
15558;BME280;7880;50.110;9.372;2022-08-01T12:44:12;25.297844773583346;;;25.437;50.127674479135464
15558;BME280;7880;50.110;9.372;2022-08-01T12:49:10;24.83387576547102;;;24.75;52.725908580351586
15558;BME280;7880;50.110;9.372;2022-08-01T12:54:09;24.632150878111133;;;24.437;54.38123011637711
15558;BME280;7880;50.110;9.372;2022-08-01T12:59:21;24.57163350270712;;;24.312;53.34074929339198
15558;BME280;7880;50.110;9.372;2022-08-01T13:04:15;24.506073059979826;;;24.25;55.04321535332326
15558;BME280;7880;50.110;9.372;2022-08-01T13:09:19;24.57163350270712;;;24.312;52.50985152055637
15558;BME280;7880;50.110;9.372;2022-08-01T13:14:27;24.611978414986517;;;24.375;53.12889544964306
15558;BME280;7880;50.110;9.372;2022-08-01T13:19:41;25.025514839781682;;;24.687;53.09859160934549
15558;BME280;7880;50.110;9.372;2022-08-01T13:24:29;25.045687398366862;;;24.875;51.30944306018286
15558;BME280;7880;50.110;9.372;2022-08-01T13:29:35;25.267585850140314;;;25.0;51.55673904944038
15558;BME280;7880;50.110;9.372;2022-08-01T13:35:01;25.32810370750376;;;25.187;51.01612865869236
15558;BME280;7880;50.110;9.372;2022-08-01T13:39:43;25.307931083725997;;;25.187;50.63205252835835
15558;BME280;7880;50.110;9.372;2022-08-01T13:44:45;25.22724063518108;;;25.187;49.8190256000449
15558;BME280;7880;50.110;9.372;2022-08-01T13:49:48;25.242370088608006;;;25.125;50.88229123749594
15558;BME280;7880;50.110;9.372;2022-08-01T13:54:53;25.055773679405682;;;24.937;50.16526817661219
15558;BME280;7880;50.110;9.372;2022-08-01T14:00:05;24.743099508533486;;;24.625;51.13669384891335
15558;BME280;7880;50.110;9.372;2022-08-01T14:05:05;24.7229270197975;;;24.562;51.14706826815457
15558;BME280;7880;50.110;9.372;2022-08-01T14:10:05;24.70275453571812;;;24.437;51.655255924441036
15558;BME280;7880;50.110;9.372;2022-08-01T14:15:13;24.90447958605946;;;24.625;51.31637533470373
15558;BME280;7880;50.110;9.372;2022-08-01T14:20:15;24.94482465200708;;;24.687;51.43246752013513
15558;BME280;7880;50.110;9.372;2022-08-01T14:25:18;24.929695250093935;;;24.687;51.16930794821844
15558;BME280;7880;50.110;9.372;2022-08-01T14:30:22;25.136463969625765;;;24.875;51.049163511367915
15558;BME280;7880;50.110;9.372;2022-08-01T14:35:27;25.29280161894858;;;25.062;51.55746642092502
15558;BME280;7880;50.110;9.372;2022-08-01T14:40:32;25.318017395032804;;;25.125;50.88983865892051
15558;BME280;7880;50.110;9.372;2022-08-01T14:45:40;25.31297423923388;;;25.062;50.286979597465994
15558;BME280;7880;50.110;9.372;2022-08-01T14:50:50;25.52983020139509;;;25.375;50.64894761616336
15558;BME280;7880;50.110;9.372;2022-08-01T14:55:48;25.539916538313264;;;25.312;50.71499997121688
15558;BME280;7880;50.110;9.372;2022-08-01T15:00:54;25.449139547959202;;;25.312;51.046869953085
15558;BME280;7880;50.110;9.372;2022-08-01T15:05:57;25.428966896241764;;;25.187;50.75586185441535
15558;BME280;7880;50.110;9.372;2022-08-01T15:10:59;25.075946244975786;;;24.937;50.71892752543935
15558;BME280;7880;50.110;9.372;2022-08-01T15:16:12;24.985169736581156;;;24.812;50.880716554794155
15558;BME280;7880;50.110;9.372;2022-08-01T15:21:19;24.94482465200708;;;24.75;50.24452940541502
15558;BME280;7880;50.110;9.372;2022-08-01T15:26:14;24.8691776686348;;;24.625;51.02530570722334
15558;BME280;7880;50.110;9.372;2022-08-01T15:31:15;24.743099508533486;;;24.5;51.43213750860892
15558;BME280;7880;50.110;9.372;2022-08-01T15:36:20;24.62206464596675;;;24.437;51.76773778661527
15558;BME280;7880;50.110;9.372;2022-08-01T15:41:28;24.581719729030738;;;24.312;52.597641567708656
15558;BME280;7880;50.110;9.372;2022-08-01T15:46:33;24.57163350270712;;;24.312;53.608561080759216
15558;BME280;7880;50.110;9.372;2022-08-01T15:51:35;24.818746382766403;;;24.5;53.605949986856196
15558;BME280;7880;50.110;9.372;2022-08-01T15:56:40;24.83387576547102;;;24.625;53.79785223035403
15558;BME280;7880;50.110;9.372;2022-08-01T16:01:45;25.257499544654273;;;24.937;53.626137648626575
15558;BME280;7880;50.110;9.372;2022-08-01T16:06:51;24.99021287346259;;;24.812;53.69376478207478
15558;BME280;7880;50.110;9.372;2022-08-01T16:11:53;24.964997191965814;;;24.75;52.292302089335024
15558;BME280;7880;50.110;9.372;2022-08-01T16:17:01;24.914565850800138;;;24.687;51.51369300297689
15558;BME280;7880;50.110;9.372;2022-08-01T16:22:04;24.98012659999076;;;24.687;51.526535120764606
15558;BME280;7880;50.110;9.372;2022-08-01T16:27:08;24.98012659999076;;;24.75;52.10669681504953
15558;BME280;7880;50.110;9.372;2022-08-01T16:32:30;24.97004032768309;;;24.812;52.232260346550234
15558;BME280;7880;50.110;9.372;2022-08-01T16:37:29;24.818746382766403;;;24.625;52.50663137684676
15558;BME280;7880;50.110;9.372;2022-08-01T16:42:21;24.692668295424664;;;24.437;52.75971282697059
15558;BME280;7880;50.110;9.372;2022-08-01T16:47:28;24.62206464596675;;;24.437;53.23855741551617
15558;BME280;7880;50.110;9.372;2022-08-01T16:52:47;24.480857518181438;;;24.25;53.56724704140015
15558;BME280;7880;50.110;9.372;2022-08-01T16:57:37;24.425383351836352;;;24.125;53.19929597331286
15558;BME280;7880;50.110;9.372;2022-08-01T17:02:42;24.50102995103807;;;24.125;53.78650076567276
15558;BME280;7880;50.110;9.372;2022-08-01T17:07:47;24.41529714355711;;;24.125;53.81634869095796
15558;BME280;7880;50.110;9.372;2022-08-01T17:12:51;24.248874875024192;;;23.937;53.51026815707846
15558;BME280;7880;50.110;9.372;2022-08-01T17:17:54;24.17827158412547;;;23.875;54.13035025457832
15558;BME280;7880;50.110;9.372;2022-08-01T17:23:03;24.122797609865664;;;23.812;54.59238654861552
15558;BME280;7880;50.110;9.372;2022-08-01T17:28:09;24.057237503869693;;;23.75;55.228478097738666
15558;BME280;7880;50.110;9.372;2022-08-01T17:33:07;24.04715133808204;;;23.687;55.56637266209031
15558;BME280;7880;50.110;9.372;2022-08-01T17:38:14;23.961418975889682;;;23.625;55.35034310964297
15558;BME280;7880;50.110;9.372;2022-08-01T17:43:16;23.936203591251978;;;23.625;55.64393070649665
15558;BME280;7880;50.110;9.372;2022-08-01T17:48:21;23.936203591251978;;;23.625;56.10751213446406
15558;BME280;7880;50.110;9.372;2022-08-01T17:53:31;23.870643625245428;;;23.625;59.77805691638139
15558;BME280;7880;50.110;9.372;2022-08-01T17:58:30;23.73448077608482;;;23.437;63.363428030304085
15558;BME280;7880;50.110;9.372;2022-08-01T18:03:36;23.72439464755007;;;23.375;64.26565586263247
15558;BME280;7880;50.110;9.372;2022-08-01T18:08:40;23.865600552974502;;;23.437;64.7035192090591
15558;BME280;7880;50.110;9.372;2022-08-01T18:13:41;23.840385195985437;;;23.437;65.2784664092208
15558;BME280;7880;50.110;9.372;2022-08-01T18:18:45;23.668920961418188;;;23.375;66.8006127907957
15558;BME280;7880;50.110;9.372;2022-08-01T18:23:55;23.58318897029967;;;23.25;65.27386722669806
15558;BME280;7880;50.110;9.372;2022-08-01T18:28:53;23.45206961716176;;;23.0;67.58498994645892
15558;BME280;7880;50.110;9.372;2022-08-01T18:34:00;23.371380882250378;;;23.0;67.05856990840607
15558;BME280;7880;50.110;9.372;2022-08-01T18:39:04;23.27556310631335;;;22.875;67.79593336146544
15558;BME280;7880;50.110;9.372;2022-08-01T18:44:04;23.225132740125993;;;22.75;65.87125587177542
15558;BME280;7880;50.110;9.372;2022-08-01T18:49:10;22.730916691664607;;;22.5;69.9597410783852
15558;BME280;7880;50.110;9.372;2022-08-01T18:54:15;22.655271624779562;;;22.187;70.71786774567634
15558;BME280;7880;50.110;9.372;2022-08-01T18:59:23;22.448508776072412;;;21.937;71.2872271669695
15558;BME280;7880;50.110;9.372;2022-08-01T19:04:23;22.36277798228548;;;21.875;70.62620751881089
15558;BME280;7880;50.110;9.372;2022-08-01T19:09:27;22.201402598625283;;;21.687;71.2202054662898
15558;BME280;7880;50.110;9.372;2022-08-01T19:14:30;21.944211196899413;;;21.437;71.96851498011574
15558;BME280;7880;50.110;9.372;2022-08-01T19:19:36;21.752578879916108;;;21.25;73.03403526546431
15558;BME280;7880;50.110;9.372;2022-08-01T19:24:40;21.797965443326394;;;21.125;72.02761862292142
15558;BME280;7880;50.110;9.372;2022-08-01T19:29:47;21.63659110274748;;;21.125;72.00991358947701
15558;BME280;7880;50.110;9.372;2022-08-01T19:34:48;21.651719934516585;;;21.062;72.24865972855375
15558;BME280;7880;50.110;9.372;2022-08-01T19:39:50;21.470174126164057;;;20.937;73.14135966455432
15558;BME280;7880;50.110;9.372;2022-08-01T19:44:55;21.182727367669578;;;20.687;73.9274483187745
15558;BME280;7880;50.110;9.372;2022-08-01T19:49:59;21.157512784842403;;;20.625;74.52374908030528
15558;BME280;7880;50.110;9.372;2022-08-01T19:55:04;20.955796384159477;;;20.375;75.88070746188261
15558;BME280;7880;50.110;9.372;2022-08-01T20:00:00;20.769209128111832;;;20.25;78.11953201925078
15558;BME280;7880;50.110;9.372;2022-08-01T20:05:07;20.839809664624045;;;20.187;77.52326677396138
15558;BME280;7880;50.110;9.372;2022-08-01T20:10:09;20.728865990001943;;;20.062;79.07857890529323
15558;BME280;7880;50.110;9.372;2022-08-01T20:15:12;20.57757938798168;;;20.0;78.74201991427282
15558;BME280;7880;50.110;9.372;2022-08-01T20:20:15;20.87006705487729;;;20.375;75.43185338611771
15558;BME280;7880;50.110;9.372;2022-08-01T20:25:19;20.754080449137838;;;20.312;76.89146821147011
15558;BME280;7880;50.110;9.372;2022-08-01T20:30:23;20.743994664610362;;;20.187;75.87878162334367
15558;BME280;7880;50.110;9.372;2022-08-01T20:35:27;20.859981256962055;;;20.375;75.51177484533999
15558;BME280;7880;50.110;9.372;2022-08-01T20:40:31;20.875109954271466;;;20.437;75.87382410543442
15558;BME280;7880;50.110;9.372;2022-08-01T20:45:34;20.9608392885013;;;20.562;75.59031468147269
15558;BME280;7880;50.110;9.372;2022-08-01T20:51:43;20.769209128111832;;;20.375;77.12418732970173
15558;BME280;7880;50.110;9.372;2022-08-01T20:56:29;20.82972387020127;;;20.375;75.8807187070996